Time;durP1;ratioP1;P1;durP2;ratioP2;P2;SDS_P1;SDS_P2;PMS_P1;PMS_P2;Temp;Humidity;BMP_temperature;BMP_pressure;BME280_temperature;BME280_humidity;BME280_pressure;Samples;Min_cycle;Max_cycle;Signal;HPM_P1;HPM_P2
2021/07/03 00:01:08;;;;;;;;;;;14.70;93.70;;;;;;5076267;28;19912;-69
2021/07/03 00:03:34;;;;;;;;;;;14.60;93.80;;;;;;5077203;28;19931;-69
2021/07/03 00:05:59;;;;;;;;;;;14.40;93.70;;;;;;5072150;28;19935;-69
2021/07/03 00:08:27;;;;;;;;;;;14.40;94.00;;;;;;5073888;28;19924;-70
2021/07/03 00:10:57;;;;;;;;;;;14.20;94.20;;;;;;5077906;28;20384;-70
2021/07/03 00:13:22;;;;;;;;;;;14.10;94.30;;;;;;5074311;28;19927;-69
2021/07/03 00:15:48;;;;;;;;;;;14.10;94.70;;;;;;5074426;28;20015;-69
2021/07/03 00:18:13;;;;;;;;;;;14.10;94.90;;;;;;5079227;28;19916;-69
2021/07/03 00:20:39;;;;;;;;;;;14.00;95.20;;;;;;5076261;28;20321;-67
2021/07/03 00:23:05;;;;;;;;;;;14.00;95.30;;;;;;5078854;28;19934;-69
2021/07/03 00:25:31;;;;;;;;;;;14.00;95.50;;;;;;5076833;28;19978;-68
2021/07/03 00:27:57;;;;;;;;;;;14.00;95.40;;;;;;5079550;28;19920;-69
2021/07/03 00:30:22;;;;;;;;;;;13.90;95.20;;;;;;5075770;28;19969;-69
2021/07/03 00:32:48;;;;;;;;;;;13.80;95.20;;;;;;5082601;28;20265;-69
2021/07/03 00:35:13;;;;;;;;;;;13.80;95.20;;;;;;5082179;28;20331;-69
2021/07/03 00:37:39;;;;;;;;;;;13.70;95.30;;;;;;5078599;28;19912;-67
2021/07/03 00:40:05;;;;;;;;;;;13.70;95.40;;;;;;5082567;28;19919;-70
2021/07/03 00:42:30;;;;;;;;;;;13.70;95.40;;;;;;5084338;28;20142;-69
2021/07/03 00:44:56;;;;;;;;;;;13.70;95.50;;;;;;5077329;28;20349;-72
2021/07/03 00:47:21;;;;;;;;;;;13.60;95.30;;;;;;5081842;28;19912;-68
2021/07/03 00:49:47;;;;;;;;;;;13.50;95.20;;;;;;5078284;28;19921;-70
2021/07/03 00:52:13;;;;;;;;;;;13.50;95.20;;;;;;5083249;28;19923;-69
2021/07/03 00:54:40;;;;;;;;;;;13.40;95.30;;;;;;5081886;28;20240;-69
2021/07/03 00:57:06;;;;;;;;;;;13.30;95.30;;;;;;5079893;28;19942;-69
2021/07/03 00:59:36;;;;;;;;;;;13.30;95.40;;;;;;5083676;28;20321;-68
2021/07/03 01:02:02;;;;;;;;;;;13.30;95.50;;;;;;5082183;28;20264;-68
2021/07/03 01:04:28;;;;;;;;;;;13.30;95.70;;;;;;5072847;28;19928;-68
2021/07/03 01:06:54;;;;;;;;;;;13.20;95.50;;;;;;5066965;28;20253;-69
2021/07/03 01:09:19;;;;;;;;;;;13.20;95.70;;;;;;5086167;28;19938;-69
2021/07/03 01:11:45;;;;;;;;;;;13.20;95.90;;;;;;5086489;28;20382;-71
2021/07/03 01:14:10;;;;;;;;;;;13.20;95.90;;;;;;5082641;28;19998;-69
2021/07/03 01:16:36;;;;;;;;;;;13.10;95.80;;;;;;5082692;28;19916;-69
2021/07/03 01:19:01;;;;;;;;;;;13.00;95.80;;;;;;5078267;28;20356;-71
2021/07/03 01:21:28;;;;;;;;;;;13.00;96.00;;;;;;5071277;28;19966;-68
2021/07/03 01:23:54;;;;;;;;;;;13.00;96.20;;;;;;5084522;28;20455;-71
2021/07/03 01:26:19;;;;;;;;;;;13.00;96.20;;;;;;5086291;28;20193;-69
2021/07/03 01:28:45;;;;;;;;;;;13.00;96.20;;;;;;5079858;28;20019;-69
2021/07/03 01:31:10;;;;;;;;;;;13.00;96.20;;;;;;5081051;28;19927;-69
2021/07/03 01:33:36;;;;;;;;;;;12.90;96.20;;;;;;5084168;28;19960;-70
2021/07/03 01:36:02;;;;;;;;;;;12.90;96.20;;;;;;5086175;28;19919;-69
2021/07/03 01:38:27;;;;;;;;;;;12.80;96.30;;;;;;5084646;28;20344;-69
2021/07/03 01:40:53;;;;;;;;;;;12.80;96.50;;;;;;5084975;28;19916;-72
2021/07/03 01:43:19;;;;;;;;;;;12.90;96.70;;;;;;5085085;28;20001;-69
2021/07/03 01:45:45;;;;;;;;;;;12.80;96.50;;;;;;5075046;28;19928;-69
2021/07/03 01:48:10;;;;;;;;;;;12.80;96.50;;;;;;5085042;28;19963;-68
2021/07/03 01:50:36;;;;;;;;;;;12.70;96.60;;;;;;5073477;28;19920;-69
2021/07/03 01:53:01;;;;;;;;;;;12.70;96.50;;;;;;5073474;28;20015;-71
2021/07/03 01:55:27;;;;;;;;;;;12.60;96.40;;;;;;5084017;28;19916;-70
2021/07/03 01:57:52;;;;;;;;;;;12.60;96.50;;;;;;5080743;28;20053;-68
2021/07/03 02:00:18;;;;;;;;;;;12.60;96.60;;;;;;5072467;28;20032;-71
2021/07/03 02:02:43;;;;;;;;;;;12.50;96.70;;;;;;5081194;28;19933;-68
2021/07/03 02:05:09;;;;;;;;;;;12.50;96.90;;;;;;5079565;28;19991;-69
2021/07/03 02:07:34;;;;;;;;;;;12.40;96.90;;;;;;5071480;28;19920;-69
2021/07/03 02:10:00;;;;;;;;;;;12.40;97.00;;;;;;5085885;28;19908;-69
2021/07/03 02:12:26;;;;;;;;;;;12.30;96.90;;;;;;5084581;28;20261;-69
2021/07/03 02:14:51;;;;;;;;;;;12.30;96.90;;;;;;5085507;28;19908;-68
2021/07/03 02:17:17;;;;;;;;;;;12.20;96.80;;;;;;5084634;28;19989;-69
2021/07/03 02:19:42;;;;;;;;;;;12.20;96.90;;;;;;5083793;28;19977;-69
2021/07/03 02:22:08;;;;;;;;;;;12.10;96.90;;;;;;5077731;28;19935;-70
2021/07/03 02:24:34;;;;;;;;;;;12.10;97.00;;;;;;5084780;28;20379;-70
2021/07/03 02:26:59;;;;;;;;;;;12.10;97.00;;;;;;5085874;28;20155;-68
2021/07/03 02:29:25;;;;;;;;;;;12.10;96.90;;;;;;5084167;28;19920;-69
2021/07/03 02:31:50;;;;;;;;;;;12.00;96.80;;;;;;5085416;28;19916;-70
2021/07/03 02:34:16;;;;;;;;;;;11.90;96.90;;;;;;5084986;28;19938;-68
2021/07/03 02:36:41;;;;;;;;;;;11.90;97.00;;;;;;5088530;28;19912;-68
2021/07/03 02:39:07;;;;;;;;;;;11.80;97.00;;;;;;5083841;28;19912;-69
2021/07/03 02:41:33;;;;;;;;;;;11.90;97.20;;;;;;5085356;28;19962;-69
2021/07/03 02:43:59;;;;;;;;;;;11.80;97.20;;;;;;5083031;28;20233;-68
2021/07/03 02:46:25;;;;;;;;;;;11.80;97.20;;;;;;5085196;28;20025;-70
2021/07/03 02:48:51;;;;;;;;;;;11.70;97.20;;;;;;5080204;28;19959;-68
2021/07/03 02:51:16;;;;;;;;;;;11.70;97.10;;;;;;5078221;28;20119;-69
2021/07/03 02:53:42;;;;;;;;;;;11.60;97.10;;;;;;5072013;28;19974;-68
2021/07/03 02:56:08;;;;;;;;;;;11.60;97.10;;;;;;5076997;28;19912;-69
2021/07/03 02:58:33;;;;;;;;;;;11.50;97.00;;;;;;5076477;28;19916;-67
2021/07/03 03:00:59;;;;;;;;;;;11.50;97.10;;;;;;5085761;28;20007;-68
2021/07/03 03:03:24;;;;;;;;;;;11.50;97.10;;;;;;5083390;28;19955;-70
2021/07/03 03:05:49;;;;;;;;;;;11.50;97.10;;;;;;5084511;28;20016;-70
2021/07/03 03:08:15;;;;;;;;;;;11.40;97.10;;;;;;5084320;28;19971;-68
2021/07/03 03:10:40;;;;;;;;;;;11.30;97.10;;;;;;5084656;28;20275;-70
2021/07/03 03:13:06;;;;;;;;;;;11.30;97.00;;;;;;5083344;28;20019;-69
2021/07/03 03:15:31;;;;;;;;;;;11.30;97.00;;;;;;5066858;28;20002;-69
2021/07/03 03:17:57;;;;;;;;;;;11.30;97.00;;;;;;5079671;28;19912;-69
2021/07/03 03:20:22;;;;;;;;;;;11.30;97.10;;;;;;5082345;28;19912;-68
2021/07/03 03:22:48;;;;;;;;;;;11.30;97.20;;;;;;5070928;28;20375;-69
2021/07/03 03:25:13;;;;;;;;;;;11.40;97.40;;;;;;5064528;28;20007;-69
2021/07/03 03:27:39;;;;;;;;;;;11.30;97.50;;;;;;5073934;28;19946;-70
2021/07/03 03:30:05;;;;;;;;;;;11.30;97.50;;;;;;5077757;28;20356;-70
2021/07/03 03:32:31;;;;;;;;;;;11.30;97.50;;;;;;5077498;28;20408;-70
2021/07/03 03:34:56;;;;;;;;;;;11.30;97.50;;;;;;5083833;28;20059;-71
2021/07/03 03:37:22;;;;;;;;;;;11.40;97.50;;;;;;5080071;28;19935;-70
2021/07/03 03:39:47;;;;;;;;;;;11.50;97.70;;;;;;5084240;28;20295;-69
2021/07/03 03:42:13;;;;;;;;;;;11.50;97.80;;;;;;5075686;28;20000;-70
2021/07/03 03:44:38;;;;;;;;;;;11.60;97.90;;;;;;5063511;28;19919;-70
2021/07/03 03:47:04;;;;;;;;;;;11.60;97.80;;;;;;5082603;28;19919;-70
2021/07/03 03:49:29;;;;;;;;;;;11.60;97.90;;;;;;5073899;28;19986;-70
2021/07/03 03:51:55;;;;;;;;;;;11.60;98.00;;;;;;5069090;28;19947;-72
2021/07/03 03:54:22;;;;;;;;;;;11.70;98.00;;;;;;5063336;28;19959;-70
2021/07/03 03:56:47;;;;;;;;;;;11.80;98.10;;;;;;5077200;28;19916;-70
2021/07/03 03:59:13;;;;;;;;;;;11.90;98.10;;;;;;5083356;28;20108;-69
2021/07/03 04:01:39;;;;;;;;;;;11.90;98.10;;;;;;5083428;28;19969;-70
2021/07/03 04:04:05;;;;;;;;;;;11.90;98.10;;;;;;5083347;28;20008;-70
2021/07/03 04:06:30;;;;;;;;;;;12.00;98.10;;;;;;5074819;28;20463;-70
2021/07/03 04:08:56;;;;;;;;;;;12.00;98.10;;;;;;5084593;28;19920;-69
2021/07/03 04:11:22;;;;;;;;;;;12.00;98.00;;;;;;5086798;28;19920;-69
2021/07/03 04:13:47;;;;;;;;;;;12.00;98.00;;;;;;5084960;28;20000;-69
2021/07/03 04:16:13;;;;;;;;;;;12.00;98.00;;;;;;5086496;28;19912;-70
2021/07/03 04:18:38;;;;;;;;;;;12.10;98.00;;;;;;5076788;28;19939;-71
2021/07/03 04:21:04;;;;;;;;;;;12.10;98.00;;;;;;5081005;28;20306;-70
2021/07/03 04:23:29;;;;;;;;;;;12.20;98.10;;;;;;5069094;28;20144;-71
2021/07/03 04:25:55;;;;;;;;;;;12.20;98.00;;;;;;5080775;28;19920;-70
2021/07/03 04:28:20;;;;;;;;;;;12.30;97.90;;;;;;5069589;28;19920;-69
2021/07/03 04:30:46;;;;;;;;;;;12.30;97.80;;;;;;5077326;28;19930;-70
2021/07/03 04:33:11;;;;;;;;;;;12.20;97.80;;;;;;5086172;28;20360;-70
2021/07/03 04:35:37;;;;;;;;;;;12.30;97.80;;;;;;5087339;28;19951;-72
2021/07/03 04:38:03;;;;;;;;;;;12.30;97.90;;;;;;5086683;28;19954;-69
2021/07/03 04:40:28;;;;;;;;;;;12.30;97.80;;;;;;5087395;28;19912;-70
2021/07/03 04:42:54;;;;;;;;;;;12.30;97.60;;;;;;5085693;28;19920;-70
2021/07/03 04:45:19;;;;;;;;;;;12.30;97.70;;;;;;5086655;28;20003;-69
2021/07/03 04:47:45;;;;;;;;;;;12.30;97.70;;;;;;5082300;28;19924;-69
2021/07/03 04:50:11;;;;;;;;;;;12.30;97.80;;;;;;5071707;28;19977;-71
2021/07/03 04:52:36;;;;;;;;;;;12.20;97.60;;;;;;5072790;28;20982;-70
2021/07/03 04:55:03;;;;;;;;;;;12.30;97.80;;;;;;5081514;28;20226;-70
2021/07/03 04:57:28;;;;;;;;;;;12.30;97.70;;;;;;5085905;28;20418;-69
2021/07/03 04:59:54;;;;;;;;;;;12.40;97.80;;;;;;5074721;28;19912;-69
2021/07/03 05:02:19;;;;;;;;;;;12.40;97.80;;;;;;5085761;28;19916;-70
2021/07/03 05:04:46;;;;;;;;;;;12.50;97.80;;;;;;5086072;28;20035;-69
2021/07/03 05:07:12;;;;;;;;;;;12.50;97.90;;;;;;5086554;28;20039;-71
2021/07/03 05:09:37;;;;;;;;;;;12.60;98.00;;;;;;5087267;28;20255;-69
2021/07/03 05:12:03;;;;;;;;;;;12.70;98.00;;;;;;5067409;28;20344;-71
2021/07/03 05:14:28;;;;;;;;;;;12.80;98.00;;;;;;5084974;28;19920;-70
2021/07/03 05:16:54;;;;;;;;;;;12.90;98.10;;;;;;5085626;28;19917;-69
2021/07/03 05:19:20;;;;;;;;;;;12.90;98.00;;;;;;5086132;28;20015;-69
2021/07/03 05:21:45;;;;;;;;;;;13.00;98.10;;;;;;5082266;28;19938;-70
2021/07/03 05:24:11;;;;;;;;;;;13.00;98.00;;;;;;5078334;28;19912;-71
2021/07/03 05:26:36;;;;;;;;;;;13.10;98.20;;;;;;5080567;28;20017;-70
2021/07/03 05:29:02;;;;;;;;;;;13.20;98.20;;;;;;5083243;28;20383;-70
2021/07/03 05:31:28;;;;;;;;;;;13.30;98.20;;;;;;5084408;28;19909;-71
2021/07/03 05:33:53;;;;;;;;;;;13.50;98.20;;;;;;5072899;28;20494;-71
2021/07/03 05:36:19;;;;;;;;;;;13.60;98.10;;;;;;5080469;28;19912;-70
2021/07/03 05:38:47;;;;;;;;;;;13.70;98.00;;;;;;5085651;28;19916;-68
2021/07/03 05:41:13;;;;;;;;;;;13.80;97.60;;;;;;5086036;28;19908;-70
2021/07/03 05:43:39;;;;;;;;;;;14.00;97.70;;;;;;5075586;28;19927;-72
2021/07/03 05:46:05;;;;;;;;;;;14.10;97.40;;;;;;5054338;28;20115;-70
2021/07/03 05:48:30;;;;;;;;;;;14.30;97.30;;;;;;5082126;28;20073;-71
2021/07/03 05:50:57;;;;;;;;;;;14.50;96.80;;;;;;5081712;28;20288;-69
2021/07/03 05:53:22;;;;;;;;;;;14.60;96.40;;;;;;5085345;28;19918;-70
2021/07/03 05:55:48;;;;;;;;;;;14.80;96.20;;;;;;5086047;28;19912;-70
2021/07/03 05:58:13;;;;;;;;;;;14.80;95.70;;;;;;5084008;28;20341;-73
2021/07/03 06:00:39;;;;;;;;;;;15.00;95.10;;;;;;5085785;28;19924;-68
2021/07/03 06:03:04;;;;;;;;;;;15.10;94.60;;;;;;5079935;28;20455;-70
2021/07/03 06:05:30;;;;;;;;;;;15.10;94.30;;;;;;5069512;28;19951;-71
2021/07/03 06:07:55;;;;;;;;;;;15.20;94.30;;;;;;5075622;28;19999;-70
2021/07/03 06:10:21;;;;;;;;;;;15.40;94.10;;;;;;5066764;28;20333;-70
2021/07/03 06:12:46;;;;;;;;;;;15.50;94.20;;;;;;5076476;28;19912;-71
2021/07/03 06:15:12;;;;;;;;;;;15.50;93.30;;;;;;5085825;28;20392;-70
2021/07/03 06:17:38;;;;;;;;;;;15.60;93.30;;;;;;5063416;28;19977;-71
2021/07/03 06:20:05;;;;;;;;;;;15.70;93.30;;;;;;5082204;28;20287;-69
2021/07/03 06:22:30;;;;;;;;;;;15.90;92.80;;;;;;5082587;28;19916;-68
2021/07/03 06:24:56;;;;;;;;;;;16.00;92.20;;;;;;5084959;28;19912;-68
2021/07/03 06:27:21;;;;;;;;;;;16.00;91.70;;;;;;5084672;28;20321;-69
2021/07/03 06:29:47;;;;;;;;;;;16.10;91.80;;;;;;5072851;28;20387;-68
2021/07/03 06:32:13;;;;;;;;;;;16.30;91.40;;;;;;5081012;28;19912;-70
2021/07/03 06:34:38;;;;;;;;;;;16.40;90.90;;;;;;5082489;28;20150;-69
2021/07/03 06:37:04;;;;;;;;;;;16.60;91.10;;;;;;5075000;28;20365;-69
2021/07/03 06:39:30;;;;;;;;;;;16.80;89.70;;;;;;5056887;28;19912;-69
2021/07/03 06:41:55;;;;;;;;;;;16.90;89.20;;;;;;5071811;28;19920;-69
2021/07/03 06:44:21;;;;;;;;;;;17.00;87.50;;;;;;5085533;28;19915;-68
2021/07/03 06:46:46;;;;;;;;;;;17.20;86.90;;;;;;5084196;28;20755;-69
2021/07/03 06:49:15;;;;;;;;;;;17.30;86.60;;;;;;5074357;28;19913;-70
2021/07/03 06:51:40;;;;;;;;;;;17.20;86.50;;;;;;5077589;28;19920;-72
2021/07/03 06:54:06;;;;;;;;;;;17.30;86.90;;;;;;5083738;28;19919;-69
2021/07/03 06:56:32;;;;;;;;;;;17.50;85.40;;;;;;5083493;28;19962;-69
2021/07/03 06:58:57;;;;;;;;;;;17.80;84.40;;;;;;5078843;28;19961;-71
2021/07/03 07:01:23;;;;;;;;;;;17.60;83.50;;;;;;5064902;28;19921;-69
2021/07/03 07:03:48;;;;;;;;;;;17.80;83.10;;;;;;5080819;28;19964;-68
2021/07/03 07:06:14;;;;;;;;;;;17.90;82.90;;;;;;5084078;28;20028;-70
2021/07/03 07:08:39;;;;;;;;;;;18.00;82.80;;;;;;5083617;28;19916;-70
2021/07/03 07:11:05;;;;;;;;;;;17.60;82.60;;;;;;5084451;28;19908;-69
2021/07/03 07:13:30;;;;;;;;;;;17.70;82.70;;;;;;5081564;28;19980;-68
2021/07/03 07:15:56;;;;;;;;;;;17.70;81.90;;;;;;5064544;28;20348;-71
2021/07/03 07:18:21;;;;;;;;;;;17.60;83.20;;;;;;5083183;28;20010;-68
2021/07/03 07:20:47;;;;;;;;;;;17.70;83.50;;;;;;5077174;28;19951;-69
2021/07/03 07:23:13;;;;;;;;;;;18.40;83.40;;;;;;5078587;28;20006;-70
2021/07/03 07:25:39;;;;;;;;;;;18.60;80.20;;;;;;5080358;28;19938;-69
2021/07/03 07:28:04;;;;;;;;;;;18.60;81.00;;;;;;5082410;28;19916;-69
2021/07/03 07:30:30;;;;;;;;;;;18.60;80.40;;;;;;5083768;28;20384;-69
2021/07/03 07:32:55;;;;;;;;;;;18.70;79.40;;;;;;5082716;28;20011;-71
2021/07/03 07:35:21;;;;;;;;;;;18.70;79.50;;;;;;5075465;28;20345;-69
2021/07/03 07:37:48;;;;;;;;;;;18.90;78.30;;;;;;5071030;28;19983;-67
2021/07/03 07:40:14;;;;;;;;;;;19.30;79.00;;;;;;5084070;28;20442;-70
2021/07/03 07:42:40;;;;;;;;;;;19.00;79.00;;;;;;5083072;28;19951;-69
2021/07/03 07:45:06;;;;;;;;;;;18.80;78.00;;;;;;5064620;28;19956;-69
2021/07/03 07:47:31;;;;;;;;;;;18.60;78.30;;;;;;5060363;28;19913;-69
2021/07/03 07:49:57;;;;;;;;;;;18.60;78.40;;;;;;5083309;28;20060;-69
2021/07/03 07:52:22;;;;;;;;;;;18.60;77.20;;;;;;5080899;28;19969;-69
2021/07/03 07:54:48;;;;;;;;;;;18.50;78.70;;;;;;5083282;28;20030;-72
2021/07/03 07:57:13;;;;;;;;;;;18.50;78.30;;;;;;5082151;28;22017;-69
2021/07/03 07:59:39;;;;;;;;;;;18.90;77.80;;;;;;5083691;28;19912;-71
2021/07/03 08:02:04;;;;;;;;;;;18.70;77.80;;;;;;5082270;28;20426;-69
2021/07/03 08:04:30;;;;;;;;;;;19.00;77.90;;;;;;5056464;28;19941;-70
2021/07/03 08:06:55;;;;;;;;;;;19.70;75.10;;;;;;5071172;28;19912;-70
2021/07/03 08:09:21;;;;;;;;;;;19.90;74.10;;;;;;5081479;28;20034;-71
2021/07/03 08:11:46;;;;;;;;;;;19.80;73.40;;;;;;5063507;28;19948;-69
2021/07/03 08:14:12;;;;;;;;;;;19.60;73.30;;;;;;5080349;28;19920;-71
2021/07/03 08:16:37;;;;;;;;;;;19.80;74.40;;;;;;5067585;28;20338;-69
2021/07/03 08:19:03;;;;;;;;;;;19.60;72.90;;;;;;5074176;28;19916;-69
2021/07/03 08:21:28;;;;;;;;;;;19.50;75.00;;;;;;5072186;28;19912;-71
2021/07/03 08:23:54;;;;;;;;;;;19.40;74.10;;;;;;5080921;28;19961;-70
2021/07/03 08:26:19;;;;;;;;;;;19.80;72.30;;;;;;5084032;28;20349;-69
2021/07/03 08:28:45;;;;;;;;;;;20.20;72.40;;;;;;5078990;28;19965;-70
2021/07/03 08:31:10;;;;;;;;;;;20.70;72.60;;;;;;5067846;28;19920;-69
2021/07/03 08:33:36;;;;;;;;;;;20.60;69.00;;;;;;5081320;28;19925;-69
2021/07/03 08:36:01;;;;;;;;;;;20.30;69.20;;;;;;5082552;28;19912;-70
2021/07/03 08:38:27;;;;;;;;;;;19.90;69.20;;;;;;5082641;28;20004;-68
2021/07/03 08:40:53;;;;;;;;;;;19.50;70.60;;;;;;5082575;28;19923;-68
2021/07/03 08:43:19;;;;;;;;;;;19.50;69.50;;;;;;5080841;28;20064;-68
2021/07/03 08:45:44;;;;;;;;;;;19.70;69.20;;;;;;5063534;28;20015;-68
2021/07/03 08:48:10;;;;;;;;;;;20.00;70.00;;;;;;5072829;28;20244;-70
2021/07/03 08:50:35;;;;;;;;;;;19.80;70.60;;;;;;5080836;28;19983;-69
2021/07/03 08:53:05;;;;;;;;;;;19.60;70.60;;;;;;5084087;28;20056;-68
2021/07/03 08:55:30;;;;;;;;;;;19.60;71.90;;;;;;5069119;28;19912;-69
2021/07/03 08:58:03;;;;;;;;;;;19.70;71.90;;;;;;5084222;28;20002;-68
2021/07/03 09:00:35;;;;;;;;;;;20.40;69.70;;;;;;5087312;28;19961;-66
2021/07/03 09:03:10;;;;;;;;;;;21.10;69.00;;;;;;5086190;28;20016;-69
2021/07/03 09:05:35;;;;;;;;;;;21.30;68.50;;;;;;5086114;28;19924;-70
2021/07/03 09:08:02;;;;;;;;;;;21.50;67.20;;;;;;5085927;28;19932;-68
2021/07/03 09:10:28;;;;;;;;;;;20.80;66.90;;;;;;5077446;28;19920;-71
2021/07/03 09:12:54;;;;;;;;;;;20.10;68.40;;;;;;5071458;28;19932;-72
2021/07/03 09:15:21;;;;;;;;;;;20.50;68.80;;;;;;5086880;28;19942;-68
2021/07/03 09:17:54;;;;;;;;;;;20.90;67.50;;;;;;5085586;28;19977;-69
2021/07/03 09:20:27;;;;;;;;;;;21.00;65.90;;;;;;5077546;28;19992;-69
2021/07/03 09:23:00;;;;;;;;;;;21.10;65.40;;;;;;5072088;28;19912;-70
2021/07/03 09:25:25;;;;;;;;;;;21.30;66.90;;;;;;5078181;28;19915;-69
2021/07/03 09:27:51;;;;;;;;;;;20.50;66.40;;;;;;5080911;28;20333;-68
2021/07/03 09:30:20;;;;;;;;;;;20.70;65.50;;;;;;5086021;28;20222;-69
2021/07/03 09:32:52;;;;;;;;;;;21.70;67.90;;;;;;5084488;28;20353;-67
2021/07/03 09:35:18;;;;;;;;;;;21.90;63.70;;;;;;5067999;28;20300;-71
2021/07/03 09:37:43;;;;;;;;;;;21.30;65.10;;;;;;5085315;28;19938;-71
2021/07/03 09:40:09;;;;;;;;;;;20.50;65.50;;;;;;5086487;28;20298;-70
2021/07/03 09:42:36;;;;;;;;;;;20.60;67.30;;;;;;5085057;28;19912;-68
2021/07/03 09:45:01;;;;;;;;;;;21.00;62.10;;;;;;5066803;28;19920;-69
2021/07/03 09:47:27;;;;;;;;;;;21.70;60.80;;;;;;5085570;28;19981;-70
2021/07/03 09:50:11;;;;;;;;;;;22.10;61.60;;;;;;5085762;28;19926;-70
2021/07/03 09:52:37;;;;;;;;;;;21.70;61.60;;;;;;5084452;28;20432;-69
2021/07/03 09:55:03;;;;;;;;;;;21.70;63.30;;;;;;5078216;28;20092;-70
2021/07/03 09:57:29;;;;;;;;;;;21.60;63.90;;;;;;5077408;28;19932;-71
2021/07/03 09:59:55;;;;;;;;;;;21.80;62.10;;;;;;5085422;28;20463;-69
2021/07/03 10:02:21;;;;;;;;;;;22.10;63.10;;;;;;5084986;28;19938;-70
2021/07/03 10:04:46;;;;;;;;;;;22.40;65.50;;;;;;5076362;28;19912;-69
2021/07/03 10:07:17;;;;;;;;;;;22.50;61.40;;;;;;5083584;28;20010;-70
2021/07/03 10:09:56;;;;;;;;;;;22.30;59.70;;;;;;5085285;28;20125;-70
2021/07/03 10:12:24;;;;;;;;;;;22.50;59.40;;;;;;5082753;28;19916;-72
2021/07/03 10:14:50;;;;;;;;;;;23.00;58.60;;;;;;5085197;28;19918;-69
2021/07/03 10:17:25;;;;;;;;;;;22.70;56.20;;;;;;5083203;28;19916;-69
2021/07/03 10:19:51;;;;;;;;;;;22.50;58.80;;;;;;5072966;28;19909;-70
2021/07/03 10:22:18;;;;;;;;;;;22.60;58.40;;;;;;5070082;28;19912;-71
2021/07/03 10:24:45;;;;;;;;;;;22.60;58.20;;;;;;5065781;28;20467;-69
2021/07/03 10:27:15;;;;;;;;;;;22.70;57.10;;;;;;5074405;28;20365;-69
2021/07/03 10:29:40;;;;;;;;;;;23.00;57.30;;;;;;5074647;28;19920;-68
2021/07/03 10:32:17;;;;;;;;;;;22.60;58.00;;;;;;5084070;28;19922;-70
2021/07/03 10:34:42;;;;;;;;;;;22.30;59.60;;;;;;5083379;28;20330;-70
2021/07/03 10:37:08;;;;;;;;;;;22.50;59.50;;;;;;5083059;28;19942;-70
2021/07/03 10:39:34;;;;;;;;;;;22.90;57.40;;;;;;5066176;28;19950;-71
2021/07/03 10:41:59;;;;;;;;;;;23.20;56.60;;;;;;5078168;28;19924;-70
2021/07/03 10:44:35;;;;;;;;;;;23.30;56.10;;;;;;5072931;28;20321;-70
2021/07/03 10:47:10;;;;;;;;;;;23.50;55.50;;;;;;5081053;28;19916;-70
2021/07/03 10:49:37;;;;;;;;;;;23.40;55.20;;;;;;5068872;28;19958;-69
2021/07/03 10:52:13;;;;;;;;;;;24.00;54.80;;;;;;5055653;28;19916;-70
2021/07/03 10:54:38;;;;;;;;;;;23.50;55.00;;;;;;5066460;28;20277;-70
2021/07/03 10:57:04;;;;;;;;;;;23.80;54.10;;;;;;5081648;28;20022;-71
2021/07/03 10:59:30;;;;;;;;;;;24.20;53.80;;;;;;5084760;28;19908;-70
2021/07/03 11:02:06;;;;;;;;;;;23.90;54.60;;;;;;5081356;28;19934;-71
2021/07/03 11:04:42;;;;;;;;;;;24.00;54.50;;;;;;5071201;28;19916;-70
2021/07/03 11:07:10;;;;;;;;;;;24.20;53.20;;;;;;5083496;28;20114;-73
2021/07/03 11:09:36;;;;;;;;;;;24.30;53.20;;;;;;5083452;28;20390;-70
2021/07/03 11:12:12;;;;;;;;;;;23.70;52.70;;;;;;5083229;28;19916;-69
2021/07/03 11:15:06;;;;;;;;;;;23.40;54.70;;;;;;5083935;28;19995;-70
2021/07/03 11:17:32;;;;;;;;;;;23.70;52.50;;;;;;5061911;28;19923;-69
2021/07/03 11:19:57;;;;;;;;;;;23.80;51.60;;;;;;5083251;28;19928;-70
2021/07/03 11:22:24;;;;;;;;;;;24.00;54.00;;;;;;5062887;28;20216;-72
2021/07/03 11:24:50;;;;;;;;;;;24.50;51.30;;;;;;5079899;28;19947;-70
2021/07/03 11:27:31;;;;;;;;;;;24.20;51.40;;;;;;5081111;28;20056;-70
2021/07/03 11:29:58;;;;;;;;;;;24.40;51.90;;;;;;5070202;28;19990;-73
2021/07/03 11:32:24;;;;;;;;;;;24.50;51.70;;;;;;5061775;28;19920;-70
2021/07/03 11:34:54;;;;;;;;;;;24.10;51.20;;;;;;5083824;28;19908;-69
2021/07/03 11:37:26;;;;;;;;;;;23.20;54.00;;;;;;5082985;28;19980;-70
2021/07/03 11:39:57;;;;;;;;;;;23.70;52.90;;;;;;5083548;28;20268;-71
2021/07/03 11:42:33;;;;;;;;;;;24.00;52.00;;;;;;5082764;28;19934;-70
2021/07/03 11:44:59;;;;;;;;;;;24.70;50.60;;;;;;5063732;28;19909;-70
2021/07/03 11:47:41;;;;;;;;;;;25.50;49.40;;;;;;5071595;28;20002;-70
2021/07/03 11:50:08;;;;;;;;;;;24.90;50.70;;;;;;5082805;28;19926;-72
2021/07/03 11:52:41;;;;;;;;;;;24.40;52.70;;;;;;5062719;28;20022;-70
2021/07/03 11:55:06;;;;;;;;;;;25.00;53.10;;;;;;5083407;28;19912;-70
2021/07/03 11:57:38;;;;;;;;;;;25.10;50.40;;;;;;5080090;28;20287;-70
2021/07/03 12:00:04;;;;;;;;;;;24.70;54.90;;;;;;5083517;28;20244;-70
2021/07/03 12:02:30;;;;;;;;;;;24.00;51.80;;;;;;5062862;28;19912;-69
2021/07/03 12:04:55;;;;;;;;;;;23.50;54.30;;;;;;5072670;28;19961;-71
2021/07/03 12:07:21;;;;;;;;;;;23.50;53.30;;;;;;5077114;28;19943;-68
2021/07/03 12:09:46;;;;;;;;;;;24.40;52.40;;;;;;5070769;28;19919;-69
2021/07/03 12:12:12;;;;;;;;;;;24.70;50.20;;;;;;5078807;28;19912;-70
2021/07/03 12:14:37;;;;;;;;;;;25.00;49.10;;;;;;5074099;28;19912;-70
2021/07/03 12:17:03;;;;;;;;;;;25.30;48.10;;;;;;5074549;28;19916;-70
2021/07/03 12:19:28;;;;;;;;;;;26.10;48.50;;;;;;5074485;28;19958;-71
2021/07/03 12:22:03;;;;;;;;;;;25.30;49.10;;;;;;5079519;28;19927;-72
2021/07/03 12:24:28;;;;;;;;;;;25.00;50.80;;;;;;5072844;28;20026;-72
2021/07/03 12:26:54;;;;;;;;;;;24.90;56.70;;;;;;5074773;28;20465;-73
2021/07/03 12:29:27;;;;;;;;;;;25.40;55.70;;;;;;5085902;28;20277;-70
2021/07/03 12:31:53;;;;;;;;;;;25.40;50.40;;;;;;5073562;28;20412;-71
2021/07/03 12:34:23;;;;;;;;;;;26.00;50.00;;;;;;5082545;28;20197;-70
2021/07/03 12:36:51;;;;;;;;;;;26.50;47.70;;;;;;5077376;28;19920;-70
2021/07/03 12:39:16;;;;;;;;;;;26.40;47.10;;;;;;5080535;28;19912;-71
2021/07/03 12:41:44;;;;;;;;;;;26.00;46.80;;;;;;5080455;28;19959;-72
2021/07/03 12:44:10;;;;;;;;;;;25.30;48.70;;;;;;5085192;28;20168;-70
2021/07/03 12:46:37;;;;;;;;;;;25.70;50.50;;;;;;5080791;28;19919;-71
2021/07/03 12:49:03;;;;;;;;;;;25.60;47.90;;;;;;5078308;28;20434;-70
2021/07/03 12:51:29;;;;;;;;;;;26.10;47.70;;;;;;5081147;28;19916;-73
2021/07/03 12:53:59;;;;;;;;;;;26.70;46.70;;;;;;5079454;28;19977;-71
2021/07/03 12:56:25;;;;;;;;;;;26.00;48.90;;;;;;5079153;28;19955;-73
2021/07/03 12:59:09;;;;;;;;;;;26.90;49.80;;;;;;5044364;28;20644;-71
2021/07/03 13:01:39;;;;;;;;;;;27.10;45.10;;;;;;5078967;28;20459;-70
2021/07/03 13:04:06;;;;;;;;;;;27.50;44.60;;;;;;5077908;28;20226;-71
2021/07/03 13:06:31;;;;;;;;;;;27.00;44.40;;;;;;5083830;28;19908;-73
2021/07/03 13:08:57;;;;;;;;;;;26.90;47.40;;;;;;5079441;28;20269;-73
2021/07/03 13:11:23;;;;;;;;;;;26.80;47.90;;;;;;5081422;28;19990;-70
2021/07/03 13:13:49;;;;;;;;;;;26.80;48.00;;;;;;5080045;28;19967;-71
2021/07/03 13:16:15;;;;;;;;;;;27.00;45.60;;;;;;5084505;28;19927;-71
2021/07/03 13:18:40;;;;;;;;;;;27.00;46.70;;;;;;5081445;28;20133;-70
2021/07/03 13:21:06;;;;;;;;;;;27.50;46.00;;;;;;5082794;28;19959;-73
2021/07/03 13:23:34;;;;;;;;;;;27.20;43.60;;;;;;5081360;28;20031;-69
2021/07/03 13:25:59;;;;;;;;;;;27.50;43.30;;;;;;5083023;28;19912;-70
2021/07/03 13:28:25;;;;;;;;;;;26.20;46.00;;;;;;5079472;28;19939;-70
2021/07/03 13:30:50;;;;;;;;;;;26.50;46.90;;;;;;5079666;28;19915;-70
2021/07/03 13:33:16;;;;;;;;;;;27.90;43.60;;;;;;5081013;28;20229;-70
2021/07/03 13:35:41;;;;;;;;;;;28.20;43.00;;;;;;5078680;28;19934;-71
2021/07/03 13:38:07;;;;;;;;;;;28.50;41.50;;;;;;5082107;28;19916;-73
2021/07/03 13:40:33;;;;;;;;;;;28.80;42.70;;;;;;5081857;28;20016;-70
2021/07/03 13:42:58;;;;;;;;;;;29.50;43.20;;;;;;5079209;28;19977;-71
2021/07/03 13:45:24;;;;;;;;;;;28.90;40.40;;;;;;5075115;28;20008;-70
2021/07/03 13:47:49;;;;;;;;;;;28.90;41.10;;;;;;5079210;28;20073;-73
2021/07/03 13:50:15;;;;;;;;;;;27.20;44.20;;;;;;5076438;28;20347;-71
2021/07/03 13:52:40;;;;;;;;;;;27.40;42.10;;;;;;5076752;28;20559;-69
2021/07/03 13:55:06;;;;;;;;;;;27.70;43.60;;;;;;5079964;28;19912;-72
2021/07/03 13:57:33;;;;;;;;;;;26.70;45.30;;;;;;5077155;28;19973;-72
2021/07/03 13:59:59;;;;;;;;;;;26.70;46.00;;;;;;5077806;28;19916;-70
2021/07/03 14:02:24;;;;;;;;;;;26.30;45.30;;;;;;5081884;28;19938;-70
2021/07/03 14:04:50;;;;;;;;;;;26.00;46.80;;;;;;5078089;28;20321;-69
2021/07/03 14:07:15;;;;;;;;;;;26.80;47.90;;;;;;5072889;28;19915;-72
2021/07/03 14:09:41;;;;;;;;;;;26.90;43.40;;;;;;5078762;28;19938;-70
2021/07/03 14:12:06;;;;;;;;;;;28.00;44.60;;;;;;5074107;28;20011;-72